createdAt,value
2023-11-07T00:00:00.678Z,98263.09
2023-11-07T00:02:27.334Z,98267.38
2023-11-07T00:04:55.256Z,98268.47
2023-11-07T00:07:24.576Z,98262.75
2023-11-07T00:09:51.759Z,98259.22
2023-11-07T00:12:18.815Z,98260.88
2023-11-07T00:14:45.998Z,98264.13
2023-11-07T00:17:12.572Z,98277.38
2023-11-07T00:19:38.992Z,98269.59
2023-11-07T00:22:05.738Z,98273.59
2023-11-07T00:24:32.157Z,98282.25
2023-11-07T00:26:59.153Z,98279.84
2023-11-07T00:29:26.433Z,98270.66
2023-11-07T00:31:53.569Z,98275.25
2023-11-07T00:34:20.384Z,98275.53
2023-11-07T00:36:49.932Z,98285.28
2023-11-07T00:39:17.357Z,98287.94
2023-11-07T00:41:44.524Z,98286.34
2023-11-07T00:44:11.829Z,98282.53
2023-11-07T00:46:38.544Z,98292.16
2023-11-07T00:49:06.514Z,98289.34
2023-11-07T00:51:33.099Z,98290.59
2023-11-07T00:54:00.283Z,98282.47
2023-11-07T00:56:27.114Z,98287.69
2023-11-07T00:58:53.680Z,98293.88
2023-11-07T01:01:20.507Z,98286.31
2023-11-07T01:03:47.562Z,98291.72
2023-11-07T01:06:14.451Z,98293.94
2023-11-07T01:08:41.636Z,98298.78
2023-11-07T01:11:08.873Z,98293.91
2023-11-07T01:13:35.582Z,98300.91
2023-11-07T01:16:02.649Z,98307.34
2023-11-07T01:18:29.420Z,98299.03
2023-11-07T01:20:56.092Z,98308.19
2023-11-07T01:23:22.629Z,98302.78
2023-11-07T01:25:49.147Z,98310.56
2023-11-07T01:28:16.518Z,98310.34
2023-11-07T01:30:43.011Z,98309.56
2023-11-07T01:33:11.217Z,98314.16
2023-11-07T01:35:37.901Z,98316.09
2023-11-07T01:38:04.624Z,98300.66
2023-11-07T01:40:31.186Z,98313.31
2023-11-07T01:42:57.726Z,98306.34
2023-11-07T01:45:24.846Z,98305.56
2023-11-07T01:47:51.652Z,98292.88
2023-11-07T01:50:19.127Z,98300.66
2023-11-07T01:52:45.779Z,98308.47
2023-11-07T01:55:17.809Z,98303.59
2023-11-07T01:57:46.011Z,98305.66
2023-11-07T02:00:17.810Z,98313.94
2023-11-07T02:02:44.643Z,98317.88
2023-11-07T02:05:11.406Z,98314.47
2023-11-07T02:07:41.357Z,98307.25
2023-11-07T02:10:10.338Z,98310.22
2023-11-07T02:12:37.202Z,98313.03
2023-11-07T02:15:24.020Z,98310.84
2023-11-07T02:17:51.457Z,98301.56
2023-11-07T02:20:21.184Z,98311.91
2023-11-07T02:22:49.821Z,98302.72
2023-11-07T02:25:17.848Z,98308.47
2023-11-07T02:27:44.389Z,98304.97
2023-11-07T02:30:13.429Z,98294.31
2023-11-07T02:32:43.682Z,98304.72
2023-11-07T02:35:14.143Z,98306.09
2023-11-07T02:37:41.433Z,98300.00
2023-11-07T02:40:11.772Z,98301.44
2023-11-07T02:42:38.762Z,98294.41
2023-11-07T02:45:06.801Z,98288.16
2023-11-07T02:47:33.463Z,98293.41
2023-11-07T02:50:00.702Z,98298.00
2023-11-07T02:52:27.261Z,98293.94
2023-11-07T02:54:53.725Z,98288.53
2023-11-07T02:57:20.440Z,98298.78
